createdAt,value
2019-04-30T07:04:25.800Z,1226.25
2019-04-30T07:05:25.378Z,1215.00
2019-04-30T07:26:30.457Z,1299.38
2019-04-30T07:27:43.016Z,1265.62
2019-04-30T07:28:43.797Z,1198.12
2019-04-30T07:29:31.399Z,1293.75
2019-04-30T07:30:30.918Z,1372.50
2019-04-30T07:31:30.332Z,1327.50
2019-04-30T07:32:30.309Z,1293.75
2019-04-30T07:33:30.307Z,1254.38
2019-04-30T07:34:36.561Z,1316.25
2019-04-30T07:35:31.293Z,1406.25
2019-04-30T07:36:45.296Z,1535.62
2019-04-30T07:37:31.283Z,1760.62
2019-04-30T07:38:30.284Z,1878.75
2019-04-30T07:39:33.293Z,2306.25
2019-04-30T07:40:30.246Z,2058.75
2019-04-30T07:41:31.197Z,2345.62
2019-04-30T07:42:30.259Z,2244.38
2019-04-30T07:43:30.209Z,1884.38
2019-04-30T07:44:36.246Z,1822.50
2019-04-30T07:45:32.176Z,2851.88
2019-04-30T07:46:34.785Z,3729.38
2019-04-30T07:47:31.152Z,2542.50
2019-04-30T07:48:30.137Z,4213.12
2019-04-30T07:49:46.207Z,2328.75
2019-04-30T07:50:32.152Z,1541.25
2019-04-30T07:51:32.191Z,1631.25
2019-04-30T07:52:33.946Z,1293.75
2019-04-30T07:53:30.960Z,1260.00
2019-04-30T07:54:30.170Z,1271.25
2019-04-30T07:55:30.064Z,2593.12
2019-04-30T07:56:37.348Z,1231.88
2019-04-30T07:57:32.514Z,1091.25
2019-04-30T07:58:30.023Z,1035.00
2019-04-30T07:59:30.258Z,1012.50
2019-04-30T08:00:31.248Z,1029.38
2019-04-30T08:01:29.993Z,1029.38
2019-04-30T08:02:36.036Z,1068.75
2019-04-30T08:03:31.276Z,1153.12
2019-04-30T08:04:29.959Z,1271.25
2019-04-30T08:05:30.009Z,1361.25
2019-04-30T08:06:30.887Z,1445.62
2019-04-30T08:07:30.321Z,1856.25
2019-04-30T08:08:30.485Z,1918.12
2019-04-30T08:09:39.214Z,2205.00
2019-04-30T08:10:30.889Z,1507.50
2019-04-30T08:11:34.412Z,1361.25
2019-04-30T08:12:35.806Z,1288.12
2019-04-30T08:13:32.855Z,1231.88
2019-04-30T08:14:29.880Z,1282.50
2019-04-30T08:15:29.852Z,1248.75
2019-04-30T08:16:29.828Z,1254.38
2019-04-30T08:17:29.832Z,1350.00
2019-04-30T08:18:29.799Z,1417.50
2019-04-30T08:19:29.792Z,2081.25
2019-04-30T08:20:29.800Z,1575.00
2019-04-30T08:21:29.796Z,1822.50
2019-04-30T08:22:29.844Z,2238.75
2019-04-30T08:23:34.848Z,1681.88
2019-04-30T08:24:30.746Z,1653.75
2019-04-30T08:25:29.738Z,2109.38
2019-04-30T08:26:29.719Z,1861.88
2019-04-30T08:27:29.766Z,3723.75
2019-04-30T08:28:30.390Z,3768.75
2019-04-30T08:29:29.693Z,3757.50
2019-04-30T08:30:30.132Z,3948.75
2019-04-30T08:31:29.656Z,4370.62
2019-04-30T08:32:29.677Z,4595.62
2019-04-30T08:33:29.651Z,4359.38
2019-04-30T08:34:29.637Z,4280.62
2019-04-30T08:35:29.770Z,4010.62
2019-04-30T08:36:29.949Z,3920.62
2019-04-30T08:37:29.636Z,3892.50
2019-04-30T08:38:30.090Z,4207.50
2019-04-30T08:39:31.905Z,4393.12
2019-04-30T08:40:29.814Z,4370.62
2019-04-30T08:41:29.574Z,4421.25
2019-04-30T08:42:33.875Z,4460.62
2019-04-30T08:43:30.536Z,4590.00
2019-04-30T08:44:29.726Z,4770.00
2019-04-30T08:45:32.196Z,4646.25
2019-04-30T08:46:30.512Z,4483.12
2019-04-30T08:47:29.493Z,4854.38
2019-04-30T08:48:44.253Z,5011.88
2019-04-30T08:49:31.086Z,5191.88
2019-04-30T08:50:30.174Z,5085.00
2019-04-30T08:51:31.126Z,4758.75
2019-04-30T08:52:30.485Z,4989.38
2019-04-30T08:53:33.192Z,5023.12
2019-04-30T08:54:29.587Z,4021.88
2019-04-30T08:55:30.409Z,3600.00
2019-04-30T08:56:29.731Z,1552.50
2019-04-30T08:57:29.498Z,2368.12
2019-04-30T08:58:29.377Z,5225.62
2019-04-30T08:59:29.576Z,5034.38
2019-04-30T09:00:29.789Z,5276.25
2019-04-30T09:01:29.619Z,5107.50
2019-04-30T09:02:29.343Z,4230.00
2019-04-30T09:03:29.682Z,4989.38
2019-04-30T09:04:29.317Z,5169.38
2019-04-30T09:05:30.637Z,4831.88
2019-04-30T09:06:29.809Z,4927.50
2019-04-30T09:07:29.783Z,4741.88
2019-04-30T09:08:29.494Z,3633.75
2019-04-30T09:09:29.617Z,4753.12
2019-04-30T09:10:29.481Z,4646.25
2019-04-30T09:11:35.588Z,4561.88
2019-04-30T09:12:30.258Z,4275.00
2019-04-30T09:13:29.219Z,4336.88
2019-04-30T09:14:29.902Z,4393.12
2019-04-30T09:15:29.241Z,4455.00
2019-04-30T09:16:29.563Z,4404.38
2019-04-30T09:17:29.687Z,4336.88
2019-04-30T09:18:29.344Z,4736.25
2019-04-30T09:19:29.886Z,4640.62
2019-04-30T09:20:29.270Z,4500.00
2019-04-30T09:21:29.975Z,4578.75
2019-04-30T09:22:29.388Z,5096.25
2019-04-30T09:23:42.582Z,4770.00
2019-04-30T09:24:31.099Z,5225.62
2019-04-30T09:25:32.000Z,5231.25
2019-04-30T09:26:29.235Z,5068.12
2019-04-30T09:27:29.619Z,4730.62
2019-04-30T09:28:29.510Z,5000.62
2019-04-30T09:29:29.380Z,4741.88
2019-04-30T09:30:29.916Z,4303.12
2019-04-30T09:31:29.713Z,4921.88
2019-04-30T09:32:29.230Z,4972.50
2019-04-30T09:33:29.453Z,4882.50
2019-04-30T09:34:29.295Z,5180.62
2019-04-30T09:35:31.856Z,5130.00
2019-04-30T09:36:29.364Z,5360.62
2019-04-30T09:37:30.618Z,5355.00
2019-04-30T09:38:29.130Z,4854.38
2019-04-30T09:39:29.530Z,4280.62
2019-04-30T09:40:32.158Z,4055.62
2019-04-30T09:41:29.586Z,4725.00
2019-04-30T09:42:29.607Z,4803.75
2019-04-30T09:43:28.931Z,4725.00
2019-04-30T09:44:30.723Z,4848.75
2019-04-30T09:45:28.892Z,4893.75
2019-04-30T09:46:29.884Z,4950.00
2019-04-30T09:47:29.543Z,4696.88
2019-04-30T09:48:30.582Z,4438.12
2019-04-30T09:49:29.411Z,4089.38
2019-04-30T09:50:29.511Z,4550.62
2019-04-30T09:51:30.689Z,4972.50
2019-04-30T09:52:30.816Z,4803.75
2019-04-30T09:53:29.724Z,4573.12
2019-04-30T09:54:29.570Z,4297.50
2019-04-30T09:55:29.171Z,5141.25
2019-04-30T09:56:29.405Z,5602.50
2019-04-30T09:57:29.080Z,5748.75
2019-04-30T09:58:29.992Z,5698.12
2019-04-30T09:59:29.108Z,5506.88
2019-04-30T10:00:29.504Z,5563.12
2019-04-30T10:01:28.869Z,5647.50
2019-04-30T10:02:29.070Z,5321.25
2019-04-30T10:03:30.865Z,5146.88
2019-04-30T10:04:30.302Z,5495.62
2019-04-30T10:05:29.211Z,5681.25
2019-04-30T10:06:39.357Z,5636.25
2019-04-30T10:07:29.736Z,5743.12
2019-04-30T10:08:30.745Z,5737.50
2019-04-30T10:09:29.342Z,5332.50
2019-04-30T10:10:28.951Z,5028.75
2019-04-30T10:11:28.674Z,4516.88
2019-04-30T10:12:29.395Z,4128.75
2019-04-30T10:13:28.636Z,4095.00
2019-04-30T10:14:28.603Z,4010.62
2019-04-30T10:15:29.008Z,5073.75
2019-04-30T10:16:29.614Z,4758.75
2019-04-30T10:17:28.592Z,4809.38
2019-04-30T10:18:28.570Z,5461.88
2019-04-30T10:19:36.565Z,5557.50
2019-04-30T10:20:28.568Z,5726.25
2019-04-30T10:33:49.354Z,4837.50
2019-04-30T10:34:48.965Z,5298.75
2019-04-30T10:35:49.609Z,5253.75
2019-04-30T10:36:49.454Z,5338.12
2019-04-30T10:37:48.902Z,4831.88
2019-04-30T10:38:49.444Z,4381.88
2019-04-30T10:39:49.158Z,4286.25
2019-04-30T10:47:56.535Z,5529.38
2019-04-30T11:09:16.494Z,5535.00
2019-04-30T11:12:46.585Z,5062.50
2019-04-30T11:15:32.102Z,4460.62
2019-04-30T11:16:31.635Z,4916.25
2019-04-30T11:17:33.639Z,4398.75
2019-04-30T11:18:31.715Z,5180.62
2019-04-30T11:19:43.216Z,5360.62
2019-04-30T11:20:31.752Z,3757.50
2019-04-30T11:21:32.388Z,2671.88
2019-04-30T11:22:31.823Z,3965.62
2019-04-30T11:23:31.678Z,1845.00
2019-04-30T11:24:38.096Z,4550.62
2019-04-30T11:25:32.890Z,4741.88
2019-04-30T11:26:32.313Z,4426.88
2019-04-30T11:27:32.185Z,4168.12
2019-04-30T11:28:31.679Z,4646.25
2019-04-30T11:29:32.100Z,5006.25
2019-04-30T11:30:31.642Z,4455.00
2019-04-30T11:31:31.611Z,3285.00
2019-04-30T11:32:31.652Z,3476.25
2019-04-30T11:33:31.744Z,4747.50
2019-04-30T11:34:31.437Z,5236.88
2019-04-30T11:35:31.392Z,5073.75
2019-04-30T11:36:32.131Z,5040.00
2019-04-30T11:37:31.374Z,4972.50
2019-04-30T11:38:31.380Z,4961.25
2019-04-30T11:39:31.352Z,4241.25
2019-04-30T11:40:36.620Z,3926.25
2019-04-30T11:41:33.285Z,5180.62
2019-04-30T11:42:32.406Z,5400.00
2019-04-30T11:43:31.315Z,5737.50
2019-04-30T11:44:31.690Z,3459.38
2019-04-30T11:45:31.304Z,4511.25
2019-04-30T11:46:31.303Z,3746.25
2019-04-30T11:47:31.275Z,4522.50
2019-04-30T11:48:31.267Z,4263.75
2019-04-30T11:49:31.275Z,4747.50
2019-04-30T11:50:31.257Z,5422.50
2019-04-30T11:51:31.234Z,5068.12
2019-04-30T11:52:31.244Z,3183.75
2019-04-30T11:53:32.079Z,3341.25
2019-04-30T11:54:31.238Z,4803.75
2019-04-30T11:55:31.310Z,4691.25
2019-04-30T11:56:31.295Z,4663.12
2019-04-30T11:57:31.221Z,3903.75
2019-04-30T11:58:31.221Z,4207.50
2019-04-30T11:59:31.170Z,5371.88
2019-04-30T12:00:31.168Z,4792.50
2019-04-30T12:01:31.259Z,4646.25
2019-04-30T12:02:31.313Z,3048.75
2019-04-30T12:03:31.205Z,4246.88
2019-04-30T12:04:31.121Z,4016.25
2019-04-30T12:05:31.222Z,4359.38
2019-04-30T12:08:49.182Z,4460.62
2019-04-30T12:10:59.325Z,4786.88
2019-04-30T12:12:10.365Z,4966.88
2019-04-30T12:12:58.869Z,5220.00
2019-04-30T12:13:58.728Z,5394.38
2019-04-30T12:15:01.085Z,5214.38
2019-04-30T12:15:59.060Z,4944.38
2019-04-30T12:16:58.837Z,5006.25
2019-04-30T12:17:58.943Z,5056.88
2019-04-30T12:18:59.034Z,5158.12
2019-04-30T12:19:58.729Z,5062.50
2019-04-30T12:20:58.669Z,5152.50
2019-04-30T12:21:58.661Z,5225.62
2019-04-30T12:22:59.145Z,5062.50
2019-04-30T12:23:58.684Z,4764.38
2019-04-30T12:25:04.881Z,5006.25
2019-04-30T12:26:02.678Z,5113.12
2019-04-30T12:26:58.604Z,5124.38
2019-04-30T12:27:59.687Z,4938.75
2019-04-30T12:29:08.956Z,4871.25
2019-04-30T12:35:06.218Z,4741.88
2019-04-30T12:36:08.874Z,4651.88
2019-04-30T12:37:06.174Z,4837.50
2019-04-30T12:39:51.796Z,4831.88
2019-04-30T12:40:51.354Z,4753.12
2019-04-30T12:41:51.362Z,5124.38
2019-04-30T12:42:51.392Z,4882.50
2019-04-30T12:43:52.276Z,4741.88
2019-04-30T12:44:51.303Z,4831.88
2019-04-30T12:46:02.212Z,4860.00
2019-04-30T12:46:52.286Z,4736.25
2019-04-30T12:47:51.327Z,4781.25
2019-04-30T12:48:51.310Z,4820.62
2019-04-30T12:49:51.292Z,4781.25
2019-04-30T12:50:51.246Z,4680.00
2019-04-30T12:53:12.038Z,4764.38
2019-04-30T12:54:11.940Z,4927.50
2019-04-30T12:55:15.506Z,4876.88
2019-04-30T12:56:11.481Z,4674.38
2019-04-30T12:57:11.468Z,4561.88
2019-04-30T12:58:11.453Z,4578.75
2019-04-30T12:59:11.518Z,4651.88
2019-04-30T13:00:11.481Z,4539.38
2019-04-30T13:01:11.470Z,4623.75
2019-04-30T13:02:11.414Z,4758.75
2019-04-30T13:03:11.425Z,4747.50
2019-04-30T13:04:11.433Z,4685.62
2019-04-30T13:05:11.374Z,4674.38
2019-04-30T13:06:12.025Z,4651.88
2019-04-30T13:07:12.188Z,4567.50
2019-04-30T13:08:11.915Z,4494.38
2019-04-30T13:09:14.579Z,4061.25
2019-04-30T13:10:12.038Z,3076.88
2019-04-30T13:11:13.019Z,3026.25
2019-04-30T13:23:33.254Z,4151.25
2019-04-30T13:24:32.153Z,4100.62
2019-04-30T13:25:35.526Z,3487.50
2019-04-30T13:26:32.372Z,3211.88
2019-04-30T13:27:32.091Z,3054.38
2019-04-30T13:28:32.511Z,3296.25
2019-04-30T13:29:32.256Z,3301.88
2019-04-30T13:30:32.092Z,3605.62
2019-04-30T13:31:32.008Z,2120.62
2019-04-30T13:32:32.897Z,2823.75
2019-04-30T13:33:31.981Z,3943.12
2019-04-30T13:34:32.186Z,4275.00
2019-04-30T13:35:33.001Z,2986.88
2019-04-30T13:36:32.033Z,1440.00
2019-04-30T13:37:31.956Z,1096.88
2019-04-30T13:59:58.618Z,877.50
2019-04-30T14:05:59.421Z,2013.75
2019-04-30T14:11:20.295Z,725.62
2019-04-30T14:12:19.432Z,714.38
2019-04-30T14:13:19.460Z,703.12
2019-04-30T14:14:19.996Z,708.75
2019-04-30T14:19:42.160Z,714.38
2019-04-30T14:20:41.741Z,714.38
2019-04-30T14:21:41.769Z,714.38
2019-04-30T14:22:41.839Z,708.75
2019-04-30T14:23:42.673Z,720.00
2019-04-30T14:36:53.728Z,765.00
2019-04-30T14:39:20.427Z,765.00
2019-04-30T14:41:40.922Z,731.25
2019-04-30T14:42:40.188Z,725.62
2019-04-30T14:43:42.788Z,759.38
2019-04-30T14:44:45.902Z,725.62
2019-04-30T14:45:40.096Z,736.88
2019-04-30T14:50:25.975Z,686.25
2019-04-30T14:51:25.903Z,686.25
2019-04-30T14:52:34.442Z,680.62
2019-04-30T14:53:32.655Z,675.00
2019-04-30T14:54:25.954Z,669.38
2019-04-30T14:55:29.365Z,663.75
2019-04-30T14:59:22.524Z,663.75
2019-04-30T15:00:26.219Z,658.12
2019-04-30T15:01:24.585Z,663.75
2019-04-30T15:02:22.601Z,669.38
2019-04-30T15:07:27.254Z,658.12
2019-04-30T15:08:26.235Z,675.00
2019-04-30T15:09:26.216Z,652.50
2019-04-30T15:10:26.752Z,646.88
2019-04-30T15:11:28.733Z,635.62
2019-04-30T15:12:26.199Z,630.00
2019-04-30T15:13:26.156Z,630.00
2019-04-30T15:14:26.241Z,630.00
2019-04-30T15:15:26.510Z,618.75
2019-04-30T15:16:29.086Z,613.12
2019-04-30T15:20:44.488Z,573.75
2019-04-30T15:21:45.431Z,613.12
2019-04-30T15:22:44.354Z,618.75
2019-04-30T15:23:45.041Z,618.75
2019-04-30T15:31:01.218Z,579.38
2019-04-30T15:32:03.566Z,562.50
2019-04-30T15:33:00.499Z,562.50
2019-04-30T15:34:03.055Z,562.50
2019-04-30T15:35:08.863Z,511.88
2019-04-30T15:36:02.170Z,511.88
2019-04-30T15:37:01.362Z,523.12
2019-04-30T15:43:11.932Z,624.38
2019-04-30T15:44:12.317Z,624.38
2019-04-30T15:45:14.862Z,624.38
2019-04-30T15:46:11.702Z,292.50
2019-04-30T15:48:43.988Z,601.88
2019-04-30T15:49:40.917Z,618.75
2019-04-30T15:51:42.361Z,635.62
2019-04-30T15:58:19.213Z,585.00
2019-04-30T16:01:58.102Z,596.25
2019-04-30T16:03:00.071Z,697.50
2019-04-30T16:03:57.693Z,703.12
2019-04-30T16:04:59.888Z,686.25
2019-04-30T16:07:49.229Z,506.25
2019-04-30T16:08:44.669Z,444.38
2019-04-30T16:57:33.373Z,410.62
2019-04-30T16:58:32.891Z,416.25
2019-04-30T16:59:33.071Z,410.62
2019-04-30T17:00:32.852Z,405.00
2019-04-30T17:01:32.879Z,399.38
2019-04-30T17:02:32.841Z,399.38
2019-04-30T17:03:33.112Z,399.38
2019-04-30T17:04:32.810Z,393.75
2019-04-30T17:05:32.807Z,393.75
2019-04-30T17:06:32.812Z,388.12
2019-04-30T17:07:32.819Z,388.12
2019-04-30T17:08:32.822Z,382.50
2019-04-30T17:09:32.841Z,382.50
2019-04-30T17:10:32.777Z,376.88
2019-04-30T17:11:32.745Z,371.25
2019-04-30T17:12:32.716Z,371.25
2019-04-30T17:13:32.745Z,365.62
2019-04-30T17:14:32.724Z,360.00
2019-04-30T17:15:32.704Z,360.00
2019-04-30T17:16:32.675Z,354.38
2019-04-30T17:17:32.696Z,348.75
2019-04-30T17:18:32.686Z,343.12
2019-04-30T17:19:32.655Z,337.50
2019-04-30T17:20:32.626Z,331.88
2019-04-30T17:21:32.621Z,331.88
2019-04-30T17:22:32.632Z,326.25
2019-04-30T17:23:32.593Z,320.62
2019-04-30T17:24:33.100Z,320.62
2019-04-30T17:25:32.570Z,315.00
2019-04-30T17:26:32.564Z,309.38
2019-04-30T17:27:32.601Z,309.38
2019-04-30T17:28:32.665Z,303.75
2019-04-30T17:29:32.537Z,303.75
2019-04-30T17:30:33.577Z,298.12
2019-04-30T17:56:31.128Z,185.62
2019-04-30T17:57:34.386Z,185.62
2019-04-30T17:58:30.726Z,180.00
2019-04-30T17:59:30.661Z,174.38
2019-04-30T18:00:30.657Z,174.38
2019-04-30T18:01:32.254Z,174.38
2019-04-30T18:02:30.705Z,168.75
2019-04-30T18:03:30.626Z,163.12
2019-04-30T18:04:30.636Z,163.12
2019-04-30T18:05:30.620Z,157.50
2019-04-30T18:07:49.808Z,146.25
2019-04-30T18:08:47.982Z,146.25
2019-04-30T18:09:48.790Z,140.62
2019-04-30T18:18:19.260Z,106.88
2019-04-30T18:22:43.793Z,90.00
2019-04-30T18:24:59.185Z,84.38
2019-04-30T18:36:59.357Z,45.00
2019-04-30T18:37:58.958Z,45.00
2019-04-30T18:38:59.087Z,39.38
2019-04-30T18:40:00.179Z,39.38
2019-04-30T18:40:59.460Z,33.75
2019-04-30T18:41:58.883Z,33.75
2019-04-30T18:43:00.003Z,33.75
2019-04-30T18:44:25.902Z,28.12
2019-04-30T18:44:58.842Z,28.12
2019-04-30T18:46:00.664Z,22.50
2019-04-30T18:46:59.102Z,22.50
2019-04-30T18:49:03.033Z,22.50
2019-04-30T18:50:00.855Z,16.88
2019-04-30T18:51:00.223Z,16.88
2019-04-30T18:51:59.117Z,16.88
2019-04-30T18:53:00.209Z,11.25
2019-04-30T18:54:06.544Z,11.25
2019-04-30T18:54:59.493Z,11.25
2019-04-30T18:56:03.403Z,11.25
2019-04-30T19:00:37.016Z,5.62
2019-04-30T19:10:55.695Z,0.00
2019-04-30T19:11:55.497Z,0.00
2019-04-30T19:12:56.301Z,0.00
2019-04-30T19:13:55.440Z,0.00
2019-04-30T19:14:55.453Z,0.00
2019-04-30T19:16:18.049Z,0.00
2019-04-30T19:16:56.409Z,0.00
2019-04-30T19:18:00.745Z,0.00
2019-04-30T19:18:55.387Z,0.00
2019-04-30T19:19:55.379Z,0.00
2019-04-30T19:20:55.372Z,0.00
2019-04-30T19:21:56.085Z,0.00
2019-04-30T19:22:55.613Z,0.00
2019-04-30T19:23:55.343Z,0.00
2019-04-30T19:24:58.685Z,0.00
2019-04-30T19:25:56.508Z,0.00
2019-04-30T19:26:55.298Z,0.00
2019-04-30T19:27:55.320Z,0.00
2019-04-30T19:28:55.333Z,0.00
2019-04-30T19:29:55.264Z,0.00
2019-04-30T19:30:58.393Z,0.00
2019-04-30T19:31:56.278Z,0.00
2019-04-30T19:32:55.249Z,0.00
2019-04-30T19:33:55.211Z,0.00
2019-04-30T19:34:55.227Z,0.00
2019-04-30T19:35:55.210Z,0.00
2019-04-30T19:36:55.181Z,0.00
2019-04-30T19:37:55.173Z,0.00
2019-04-30T19:38:55.166Z,0.00
2019-04-30T19:39:55.247Z,0.00
2019-04-30T19:40:55.157Z,0.00
2019-04-30T19:41:55.149Z,0.00
2019-04-30T19:42:58.129Z,0.00
2019-04-30T19:43:55.160Z,0.00
2019-04-30T19:44:58.978Z,0.00
2019-04-30T19:45:56.112Z,0.00
2019-04-30T19:46:55.068Z,0.00
2019-04-30T19:47:55.077Z,0.00
2019-04-30T19:48:55.056Z,0.00
2019-04-30T19:49:55.071Z,0.00
2019-04-30T19:50:55.030Z,0.00
2019-04-30T19:52:08.417Z,0.00
2019-04-30T19:52:56.123Z,0.00
2019-04-30T19:53:55.044Z,0.00
2019-04-30T19:54:55.005Z,0.00
2019-04-30T19:55:59.781Z,0.00
2019-04-30T20:01:05.501Z,0.00
2019-04-30T20:02:05.314Z,0.00
2019-04-30T20:03:06.267Z,0.00
2019-04-30T20:04:05.281Z,0.00
2019-04-30T20:05:05.296Z,0.00
2019-04-30T20:06:05.236Z,0.00
2019-04-30T20:07:05.239Z,0.00
2019-04-30T20:08:05.209Z,0.00
2019-04-30T20:09:05.208Z,0.00
2019-04-30T20:10:05.212Z,0.00
2019-04-30T20:11:05.220Z,0.00
2019-04-30T20:12:05.193Z,0.00
2019-04-30T20:13:05.189Z,0.00
2019-04-30T20:14:05.143Z,0.00
2019-04-30T20:15:16.411Z,0.00
2019-04-30T20:16:05.170Z,0.00
2019-04-30T20:17:05.114Z,0.00
2019-04-30T20:18:05.109Z,0.00
2019-04-30T20:19:05.134Z,0.00
2019-04-30T20:20:05.116Z,0.00
2019-04-30T20:21:05.796Z,0.00
2019-04-30T20:22:05.078Z,0.00
2019-04-30T20:23:05.106Z,0.00
2019-04-30T20:24:05.227Z,0.00
2019-04-30T20:25:09.181Z,0.00
2019-04-30T20:26:05.010Z,0.00
2019-04-30T20:27:08.010Z,0.00
2019-04-30T20:28:06.066Z,0.00
2019-04-30T20:29:04.997Z,0.00
2019-04-30T20:30:05.024Z,0.00
2019-04-30T20:31:04.957Z,0.00
2019-04-30T20:32:04.947Z,0.00
2019-04-30T20:33:05.800Z,0.00
2019-04-30T20:34:04.936Z,0.00
2019-04-30T20:35:04.924Z,0.00
2019-04-30T20:36:04.911Z,0.00
2019-04-30T20:37:04.956Z,0.00
2019-04-30T20:38:04.887Z,0.00
2019-04-30T20:39:04.872Z,0.00
2019-04-30T20:40:04.874Z,0.00
2019-04-30T20:41:04.859Z,0.00
2019-04-30T20:42:04.876Z,0.00
2019-04-30T20:43:04.922Z,0.00
2019-04-30T20:44:04.841Z,0.00
2019-04-30T20:45:04.821Z,0.00
2019-04-30T20:46:04.812Z,0.00
2019-04-30T20:47:04.828Z,0.00
2019-04-30T20:48:04.780Z,0.00
2019-04-30T20:49:04.809Z,0.00
2019-04-30T20:50:04.966Z,0.00
2019-04-30T20:52:43.747Z,0.00
2019-04-30T20:54:53.651Z,0.00
2019-04-30T20:55:53.771Z,0.00
2019-04-30T20:56:53.676Z,0.00
2019-04-30T20:57:53.567Z,0.00
2019-04-30T20:58:57.952Z,0.00
2019-04-30T20:59:53.608Z,0.00
2019-04-30T21:01:01.010Z,0.00
2019-04-30T21:01:54.502Z,0.00
2019-04-30T21:02:53.508Z,0.00
2019-04-30T21:03:53.508Z,0.00
2019-04-30T21:04:53.487Z,0.00
2019-04-30T21:05:53.507Z,0.00
2019-04-30T21:06:53.443Z,0.00
2019-04-30T21:07:53.437Z,0.00
2019-04-30T21:08:53.465Z,0.00
2019-04-30T21:09:53.412Z,0.00
2019-04-30T21:10:53.418Z,0.00
2019-04-30T21:11:53.385Z,0.00
2019-04-30T21:12:53.372Z,0.00
2019-04-30T21:13:53.482Z,0.00
2019-04-30T21:14:53.404Z,0.00
2019-04-30T21:15:54.984Z,0.00
2019-04-30T21:16:53.399Z,0.00
2019-04-30T21:17:53.330Z,0.00
2019-04-30T21:18:53.335Z,0.00
2019-04-30T21:19:53.299Z,0.00
2019-04-30T21:20:53.303Z,0.00
2019-04-30T21:21:53.323Z,0.00
2019-04-30T21:22:54.258Z,0.00
